Time;durP1;ratioP1;P1;durP2;ratioP2;P2;SDS_P1;SDS_P2;PMS_P1;PMS_P2;Temp;Humidity;BMP_temperature;BMP_pressure;BME280_temperature;BME280_humidity;BME280_pressure;Samples;Min_cycle;Max_cycle;Signal;HPM_P1;HPM_P2
2022/06/03 00:00:07;;;;;;;5.20;3.63;;;;;;;6.37;100.00;101523.78;4828494;29;20052;-80
2022/06/03 00:03:02;;;;;;;4.57;3.60;;;;;;;6.29;100.00;101528.06;4822397;29;20133;-78
2022/06/03 00:05:39;;;;;;;4.03;3.60;;;;;;;6.26;100.00;101525.44;4829847;29;20045;-80
2022/06/03 00:08:17;;;;;;;3.87;3.40;;;;;;;6.21;100.00;101531.50;4814783;29;20045;-80
2022/06/03 00:11:13;;;;;;;4.83;4.10;;;;;;;6.15;100.00;101530.56;4856436;29;20049;-80
2022/06/03 00:13:51;;;;;;;4.03;3.53;;;;;;;6.10;100.00;101535.75;4842608;29;20042;-80
2022/06/03 00:16:37;;;;;;;4.23;3.67;;;;;;;6.11;100.00;101524.38;4857810;29;20874;-80
2022/06/03 00:19:27;;;;;;;4.40;3.90;;;;;;;6.14;100.00;101520.94;4840314;29;20136;-80
2022/06/03 00:22:17;;;;;;;5.03;4.00;;;;;;;6.12;100.00;101520.91;4815297;29;20049;-78
2022/06/03 00:24:59;;;;;;;4.47;4.00;;;;;;;6.07;100.00;101519.97;4839163;29;20041;-80
2022/06/03 00:27:33;;;;;;;5.60;4.40;;;;;;;6.01;100.00;101525.16;4826073;29;20065;-80
2022/06/03 00:30:19;;;;;;;4.80;4.30;;;;;;;5.91;100.00;101520.66;4813967;29;20055;-79
2022/06/03 00:32:59;;;;;;;4.00;3.60;;;;;;;5.88;100.00;101523.19;4840261;29;20419;-80
2022/06/03 00:35:42;;;;;;;5.67;4.23;;;;;;;5.87;100.00;101529.28;4813370;29;20078;-79
2022/06/03 00:38:35;;;;;;;4.60;3.83;;;;;;;5.86;100.00;101519.66;4836171;29;20049;-79
2022/06/03 00:41:32;;;;;;;5.27;4.47;;;;;;;5.88;100.00;101526.69;4839122;29;20149;-78
2022/06/03 00:44:18;;;;;;;4.60;3.90;;;;;;;5.80;100.00;101524.81;4858764;29;20041;-81
2022/06/03 00:46:58;;;;;;;4.93;3.90;;;;;;;5.74;100.00;101528.28;4841998;29;20056;-80
2022/06/03 00:50:02;;;;;;;4.80;4.00;;;;;;;5.85;100.00;101526.66;4825979;29;20053;-80
2022/06/03 00:52:44;;;;;;;4.90;4.33;;;;;;;5.78;100.00;101529.19;4843220;29;20041;-80
2022/06/03 00:55:36;;;;;;;4.90;3.77;;;;;;;5.76;100.00;101526.53;4828776;29;20053;-81
2022/06/03 00:58:30;;;;;;;5.53;3.97;;;;;;;5.86;100.00;101524.91;4839051;29;20050;-80
2022/06/03 01:01:03;;;;;;;7.97;5.20;;;;;;;5.76;100.00;101517.81;4840984;29;20053;-80
2022/06/03 01:03:53;;;;;;;5.70;3.57;;;;;;;5.62;100.00;101522.84;4834330;29;20042;-78
2022/06/03 01:06:27;;;;;;;5.07;3.87;;;;;;;5.52;100.00;101531.44;4800539;29;20046;-80
2022/06/03 01:09:14;;;;;;;4.22;3.72;;;;;;;5.51;100.00;101525.34;4824188;29;20049;-81
2022/06/03 01:11:56;;;;;;;5.07;4.07;;;;;;;5.48;100.00;101532.28;4839510;29;20041;-81
2022/06/03 01:14:37;;;;;;;5.70;4.10;;;;;;;5.50;100.00;101525.31;4832146;29;20049;-80
2022/06/03 01:17:06;;;;;;;4.40;3.70;;;;;;;5.45;100.00;101522.63;4851603;29;20042;-80
2022/06/03 01:20:11;;;;;;;4.37;3.93;;;;;;;5.34;100.00;101524.22;4855773;29;20585;-80
2022/06/03 01:23:09;;;;;;;4.43;4.00;;;;;;;5.26;100.00;101531.06;4836222;29;20049;-80
2022/06/03 01:25:52;;;;;;;4.60;4.00;;;;;;;5.25;100.00;101532.81;4832620;29;20044;-80
2022/06/03 01:28:56;;;;;;;5.53;4.40;;;;;;;5.27;100.00;101536.34;4859184;29;20105;-79
2022/06/03 01:31:38;;;;;;;4.73;3.70;;;;;;;5.23;100.00;101533.66;4857994;29;20054;-80
2022/06/03 01:34:35;;;;;;;5.00;4.50;;;;;;;5.20;100.00;101533.59;4857149;29;20526;-81
2022/06/03 01:37:15;;;;;;;5.83;4.17;;;;;;;5.13;100.00;101532.66;4831622;29;20495;-80
2022/06/03 01:39:55;;;;;;;4.90;4.10;;;;;;;5.05;100.00;101543.00;4826054;29;20049;-80
2022/06/03 01:42:58;;;;;;;4.77;3.97;;;;;;;5.03;100.00;101538.56;4841164;29;20518;-79
2022/06/03 01:45:39;;;;;;;6.03;4.17;;;;;;;5.00;100.00;101539.41;4855346;29;20038;-80
2022/06/03 01:48:16;;;;;;;6.50;4.50;;;;;;;5.01;100.00;101537.66;4827170;29;20501;-80
2022/06/03 01:50:46;;;;;;;5.27;4.60;;;;;;;4.96;100.00;101542.84;4823006;29;20053;-80
2022/06/03 01:53:30;;;;;;;4.73;4.07;;;;;;;4.91;100.00;101531.41;4840113;29;20113;-80
2022/06/03 01:56:23;;;;;;;4.83;4.07;;;;;;;4.86;100.00;101543.53;4831311;29;20081;-82
2022/06/03 01:59:21;;;;;;;6.80;4.70;;;;;;;4.86;100.00;101546.16;4844582;29;20053;-81
2022/06/03 02:02:00;;;;;;;5.00;4.47;;;;;;;4.80;100.00;101539.09;4813183;29;20062;-83
2022/06/03 02:05:09;;;;;;;4.97;4.03;;;;;;;4.79;100.00;101546.88;4841813;29;20050;-82
2022/06/03 02:08:11;;;;;;;5.37;4.27;;;;;;;4.75;100.00;101545.09;4843970;29;20053;-83
2022/06/03 02:10:54;;;;;;;6.20;4.30;;;;;;;4.67;100.00;101544.06;4839536;29;20045;-80
2022/06/03 02:13:45;;;;;;;5.77;4.77;;;;;;;4.60;100.00;101550.03;4847387;29;20046;-81
2022/06/03 02:16:30;;;;;;;6.10;4.17;;;;;;;4.61;100.00;101543.94;4830966;29;20052;-83
2022/06/03 02:19:16;;;;;;;5.47;4.53;;;;;;;4.61;100.00;101551.81;4829208;29;20873;-81
2022/06/03 02:21:56;;;;;;;4.57;4.10;;;;;;;4.51;100.00;101549.03;4850219;29;20049;-80
2022/06/03 02:24:43;;;;;;;8.20;4.37;;;;;;;4.51;100.00;101542.91;4827167;29;20094;-81
2022/06/03 02:27:48;;;;;;;4.80;4.03;;;;;;;4.46;100.00;101540.22;4834927;29;20041;-83
2022/06/03 02:30:49;;;;;;;5.47;4.10;;;;;;;4.45;100.00;101542.78;4811431;29;20531;-81
2022/06/03 02:33:52;;;;;;;5.07;4.40;;;;;;;4.50;100.00;101538.53;4830548;29;20109;-81
2022/06/03 02:36:57;;;;;;;5.53;4.67;;;;;;;4.42;100.00;101535.78;4859516;29;20065;-81
2022/06/03 02:40:01;;;;;;;5.13;4.37;;;;;;;4.33;100.00;101539.94;4860586;29;20060;-80
2022/06/03 02:42:54;;;;;;;4.13;3.63;;;;;;;4.26;100.00;101538.94;4861876;29;20094;-80
2022/06/03 02:46:20;;;;;;;4.50;3.87;;;;;;;4.25;100.00;101545.03;4860892;29;20105;-82
2022/06/03 02:49:01;;;;;;;5.87;4.63;;;;;;;4.25;100.00;101555.50;4832773;29;20140;-81
2022/06/03 02:51:48;;;;;;;5.80;4.73;;;;;;;4.24;100.00;101546.78;4856042;29;20301;-81
2022/06/03 02:54:40;;;;;;;5.37;4.30;;;;;;;4.17;100.00;101554.47;4839921;29;20059;-80
2022/06/03 02:57:20;;;;;;;5.17;4.53;;;;;;;4.14;100.00;101549.19;4844199;29;20655;-81
2022/06/03 03:00:02;;;;;;;5.83;4.50;;;;;;;4.14;100.00;101554.41;4830085;29;20041;-83
2022/06/03 03:02:41;;;;;;;5.27;4.53;;;;;;;4.14;100.00;101554.41;4836168;29;20053;-81
2022/06/03 03:05:19;;;;;;;5.73;4.00;;;;;;;4.16;100.00;101543.13;4812992;29;20045;-79
2022/06/03 03:08:03;;;;;;;5.03;4.17;;;;;;;4.23;100.00;101544.13;4810258;29;20080;-81
2022/06/03 03:10:54;;;;;;;6.95;4.03;;;;;;;4.21;100.00;101545.84;4855390;29;20104;-79
2022/06/03 03:13:58;;;;;;;4.93;3.97;;;;;;;4.16;100.00;101544.84;4844886;29;20053;-79
2022/06/03 03:17:05;;;;;;;4.53;4.10;;;;;;;4.04;100.00;101553.34;4834020;29;20046;-79
2022/06/03 03:19:44;;;;;;;5.53;4.53;;;;;;;4.01;100.00;101545.44;4825661;29;20054;-82
2022/06/03 03:22:41;;;;;;;4.70;3.90;;;;;;;4.05;100.00;101546.38;4856763;29;20510;-79
2022/06/03 03:25:26;;;;;;;6.07;4.50;;;;;;;4.07;100.00;101548.19;4834164;29;20042;-79
2022/06/03 03:28:04;;;;;;;5.47;4.83;;;;;;;4.08;100.00;101544.69;4841834;29;20050;-78
2022/06/03 03:30:39;;;;;;;4.80;4.27;;;;;;;4.17;100.00;101541.38;4821046;29;20057;-80
2022/06/03 03:33:28;;;;;;;6.07;4.27;;;;;;;4.15;100.00;101543.09;4832048;29;20670;-81
2022/06/03 03:36:16;;;;;;;4.90;3.87;;;;;;;4.05;100.00;101543.78;4844388;29;20050;-81
2022/06/03 03:38:55;;;;;;;5.30;4.20;;;;;;;4.01;100.00;101542.81;4861646;29;20128;-80
2022/06/03 03:41:43;;;;;;;4.77;4.10;;;;;;;3.99;100.00;101548.88;4845823;29;20041;-79
2022/06/03 03:44:20;;;;;;;5.00;4.27;;;;;;;3.99;100.00;101541.91;4838515;29;20048;-79
2022/06/03 03:47:14;;;;;;;5.33;4.77;;;;;;;4.01;100.00;101547.16;4814824;29;20046;-81
2022/06/03 03:50:25;;;;;;;5.70;4.70;;;;;;;4.03;100.00;101550.69;4822148;29;20041;-80
2022/06/03 03:53:29;;;;;;;4.37;3.97;;;;;;;4.03;100.00;101538.50;4836426;29;20044;-80
2022/06/03 03:56:11;;;;;;;4.47;4.03;;;;;;;4.12;100.00;101546.53;4842327;29;20500;-80
2022/06/03 03:58:49;;;;;;;5.20;4.00;;;;;;;4.15;100.00;101543.97;4854284;29;20107;-82
2022/06/03 04:01:40;;;;;;;5.03;4.13;;;;;;;4.12;100.00;101546.53;4828980;29;20049;-79
2022/06/03 04:04:44;;;;;;;4.87;3.90;;;;;;;4.16;100.00;101555.31;4841926;29;20049;-80
2022/06/03 04:07:38;;;;;;;6.72;4.70;;;;;;;4.22;100.00;101558.06;4840566;29;20038;-81
2022/06/03 04:10:27;;;;;;;5.07;4.00;;;;;;;4.18;100.00;101545.75;4844192;29;20049;-79
2022/06/03 04:13:21;;;;;;;4.40;3.80;;;;;;;4.20;100.00;101554.50;4852011;29;20038;-78
2022/06/03 04:16:25;;;;;;;4.57;3.78;;;;;;;4.23;100.00;101554.59;4844886;29;20045;-80
2022/06/03 04:19:09;;;;;;;4.67;4.10;;;;;;;4.34;100.00;101560.03;4859320;29;20418;-80
2022/06/03 04:22:00;;;;;;;5.03;4.20;;;;;;;4.46;100.00;101557.66;4844840;29;20290;-80
2022/06/03 04:25:17;;;;;;;6.00;4.07;;;;;;;4.45;100.00;101556.75;4860993;29;20049;-79
2022/06/03 04:28:09;;;;;;;5.03;3.93;;;;;;;4.51;100.00;101554.25;4819285;29;20057;-81
2022/06/03 04:30:54;;;;;;;4.30;3.90;;;;;;;4.61;100.00;101557.03;4850108;29;20053;-81
2022/06/03 04:33:40;;;;;;;6.40;4.23;;;;;;;4.64;100.00;101554.50;4862328;29;20039;-80
2022/06/03 04:36:44;;;;;;;4.97;3.97;;;;;;;4.65;100.00;101556.25;4846483;29;20042;-82
2022/06/03 04:39:48;;;;;;;4.90;3.90;;;;;;;4.67;100.00;101565.00;4861652;29;20049;-78
2022/06/03 04:42:37;;;;;;;5.00;4.17;;;;;;;4.72;100.00;101568.59;4828362;29;20294;-80
2022/06/03 04:45:51;;;;;;;5.23;4.23;;;;;;;4.83;100.00;101566.16;4860781;29;20045;-80
2022/06/03 04:48:48;;;;;;;6.53;4.87;;;;;;;4.93;100.00;101562.84;4862623;29;20059;-79
2022/06/03 04:51:46;;;;;;;4.73;4.13;;;;;;;4.98;100.00;101569.06;4855697;29;20076;-81
2022/06/03 04:54:31;;;;;;;6.07;4.70;;;;;;;5.05;100.00;101569.19;4859012;29;20045;-82
2022/06/03 04:57:46;;;;;;;5.40;4.43;;;;;;;5.41;100.00;101565.38;4838655;29;20041;-79
2022/06/03 05:00:28;;;;;;;6.97;4.40;;;;;;;5.91;100.00;101562.63;4865981;29;20049;-78
2022/06/03 05:03:26;;;;;;;5.00;4.47;;;;;;;6.10;100.00;101569.84;4830262;29;20049;-80
2022/06/03 05:06:17;;;;;;;4.23;3.83;;;;;;;6.14;100.00;101562.91;4838807;29;20042;-79
2022/06/03 05:09:26;;;;;;;4.23;3.83;;;;;;;6.10;100.00;101556.72;4860505;29;20543;-81
2022/06/03 05:12:26;;;;;;;4.90;3.90;;;;;;;6.19;100.00;101562.09;4836326;29;20042;-80
2022/06/03 05:15:12;;;;;;;4.37;3.70;;;;;;;6.22;100.00;101553.34;4836361;29;20045;-83
2022/06/03 05:18:03;;;;;;;3.70;3.30;;;;;;;6.31;100.00;101563.13;4853226;29;20057;-83
2022/06/03 05:21:05;;;;;;;4.57;4.07;;;;;;;6.40;100.00;101565.84;4869509;29;20060;-80
2022/06/03 05:24:07;;;;;;;4.13;3.60;;;;;;;6.54;100.00;101563.34;4870423;29;20078;-83
2022/06/03 05:27:01;;;;;;;4.60;4.07;;;;;;;6.64;100.00;101566.09;4814244;29;20050;-81
2022/06/03 05:29:50;;;;;;;4.23;3.83;;;;;;;6.78;100.00;101566.22;4846490;29;20516;-82
2022/06/03 05:32:35;;;;;;;4.80;3.80;;;;;;;6.94;100.00;101572.50;4810917;29;20045;-81
2022/06/03 05:35:09;;;;;;;4.00;3.57;;;;;;;7.09;100.00;101572.63;4809047;29;20061;-79
2022/06/03 05:37:48;;;;;;;;;;;;;;;7.33;100.00;101572.81;4844392;29;20049;-80
2022/06/03 05:40:27;;;;;;;6.13;4.50;;;;;;;7.61;100.00;101570.38;4843591;29;20374;-80
2022/06/03 05:43:28;;;;;;;5.23;4.30;;;;;;;8.13;100.00;101571.50;4845530;29;20050;-79
2022/06/03 05:46:14;;;;;;;4.33;3.73;;;;;;;9.69;100.00;101563.78;4843171;29;20476;-80
2022/06/03 05:49:10;;;;;;;4.82;3.60;;;;;;;12.37;100.00;101559.97;4859911;29;20045;-79
2022/06/03 12:03:43;;;;;;;2.45;1.92;;;;;;;26.57;27.29;101291.44;4922321;23;20052;-79
2022/06/03 12:06:16;;;;;;;1.88;1.63;;;;;;;26.35;27.71;101276.81;4831239;29;20048;-77
2022/06/03 12:08:56;;;;;;;1.90;1.80;;;;;;;26.67;27.73;101276.19;4846307;29;20414;-76
2022/06/03 12:14:39;;;;;;;1.95;1.60;;;;;;;27.16;27.98;101266.91;4818272;29;20053;-79
2022/06/03 12:17:06;;;;;;;1.63;1.52;;;;;;;27.38;27.52;101263.31;4861915;29;20057;-78
2022/06/03 12:19:44;;;;;;;2.75;1.70;;;;;;;27.52;27.28;101251.34;4894959;29;20108;-77
2022/06/03 12:22:39;;;;;;;1.83;1.65;;;;;;;26.13;27.67;101265.88;4863341;29;20048;-78
2022/06/03 12:25:31;;;;;;;1.92;1.83;;;;;;;25.90;30.59;101264.06;4865877;29;20073;-77
2022/06/03 12:28:00;;;;;;;2.53;1.60;;;;;;;26.48;30.41;101251.50;4879420;29;20043;-77
2022/06/03 12:30:42;;;;;;;2.33;1.90;;;;;;;26.68;30.72;101250.81;4864626;29;20045;-78
2022/06/03 12:33:33;;;;;;;2.08;1.80;;;;;;;26.04;29.88;101255.75;4851502;29;20057;-79
2022/06/03 12:36:06;;;;;;;2.00;1.80;;;;;;;26.31;29.41;101244.66;4854994;29;20144;-78
2022/06/03 12:38:43;;;;;;;2.13;1.85;;;;;;;26.19;29.62;101253.72;4847148;29;20044;-77
2022/06/03 12:41:11;;;;;;;2.28;1.60;;;;;;;26.02;29.37;101247.75;4838677;29;20389;-78
2022/06/03 12:43:47;;;;;;;1.70;1.60;;;;;;;26.00;30.13;101238.88;4828359;29;20049;-78
2022/06/03 12:46:33;;;;;;;2.00;1.80;;;;;;;26.44;29.52;101247.31;4844780;29;20052;-79
2022/06/03 12:49:00;;;;;;;2.20;1.63;;;;;;;26.63;29.16;101244.88;4855273;29;20238;-80
2022/06/03 12:51:29;;;;;;;1.67;1.58;;;;;;;26.30;28.91;101234.78;4854275;29;20640;-77
2022/06/03 12:54:02;;;;;;;1.92;1.60;;;;;;;26.11;28.91;101232.66;4848504;29;20869;-78
2022/06/03 12:56:41;;;;;;;2.10;1.80;;;;;;;25.64;29.90;101225.38;4846086;29;20061;-78
2022/06/03 12:59:23;;;;;;;1.95;1.80;;;;;;;25.57;30.95;101216.00;4824670;29;20046;-77
2022/06/03 13:02:04;;;;;;;1.80;1.50;;;;;;;25.57;31.27;101216.88;4842047;29;20053;-80
2022/06/03 13:04:53;;;;;;;1.85;1.70;;;;;;;25.35;30.52;101205.91;4852272;29;20045;-81
2022/06/03 13:07:25;;;;;;;2.80;1.88;;;;;;;25.37;28.98;101207.50;4859313;29;20055;-78
2022/06/03 13:10:07;;;;;;;2.00;1.80;;;;;;;25.77;29.37;101205.44;4862702;29;20124;-78
2022/06/03 13:12:37;;;;;;;2.45;1.95;;;;;;;25.69;30.27;101191.56;4858423;29;20072;-79
2022/06/03 13:15:22;;;;;;;1.70;1.60;;;;;;;26.09;31.19;101199.41;4846926;29;20053;-78
2022/06/03 13:18:20;;;;;;;1.77;1.60;;;;;;;26.34;30.58;101201.94;4864371;29;20087;-80
2022/06/03 13:21:08;;;;;;;2.85;1.60;;;;;;;25.35;30.62;101200.50;4858918;29;20507;-77
2022/06/03 13:23:42;;;;;;;1.80;1.70;;;;;;;24.79;31.07;101197.31;4858859;29;20056;-77
2022/06/03 13:26:27;;;;;;;2.03;1.80;;;;;;;24.53;32.27;101191.06;4842547;29;20049;-77
2022/06/03 13:29:04;;;;;;;1.80;1.70;;;;;;;24.41;32.58;101185.56;4868206;29;20069;-77
2022/06/03 13:31:40;;;;;;;2.15;1.92;;;;;;;24.32;32.46;101178.09;4841580;29;20136;-76
2022/06/03 13:34:10;;;;;;;2.08;1.88;;;;;;;24.02;32.37;101177.47;4855136;29;20101;-77
2022/06/03 13:36:52;;;;;;;2.05;1.63;;;;;;;23.96;32.31;101178.75;4843098;29;20048;-77
2022/06/03 13:39:27;;;;;;;1.75;1.63;;;;;;;24.08;32.51;101172.53;4866154;29;20056;-77
2022/06/03 13:44:47;;;;;;;1.98;1.77;;;;;;;25.02;32.12;101163.22;4836062;29;20704;-77
2022/06/03 13:47:25;;;;;;;1.70;1.60;;;;;;;24.79;32.98;101162.19;4860802;29;20041;-78
2022/06/03 13:50:06;;;;;;;1.58;1.48;;;;;;;25.08;32.57;101173.66;4845881;29;20041;-78
2022/06/03 13:52:34;;;;;;;1.88;1.77;;;;;;;25.33;32.30;101167.28;4844440;29;20041;-78
2022/06/03 13:55:24;;;;;;;1.70;1.60;;;;;;;25.47;32.32;101164.41;4844076;29;20459;-78
2022/06/03 13:58:14;;;;;;;3.70;2.15;;;;;;;25.55;33.30;101167.41;4839149;29;20044;-79
2022/06/03 14:00:50;;;;;;;2.40;1.85;;;;;;;24.62;32.11;101168.81;4827927;29;20721;-77
2022/06/03 14:03:24;;;;;;;1.80;1.63;;;;;;;24.67;32.87;101162.09;4860879;29;20055;-77
2022/06/03 14:05:50;;;;;;;2.28;1.73;;;;;;;24.98;32.19;101149.09;4829102;29;20045;-78
2022/06/03 14:08:42;;;;;;;2.53;1.88;;;;;;;25.20;32.13;101151.97;4861617;29;20715;-77
2022/06/03 14:11:15;;;;;;;2.28;2.08;;;;;;;25.30;31.89;101143.16;4845660;29;20486;-78
2022/06/03 14:14:08;;;;;;;2.67;1.98;;;;;;;25.12;31.64;101146.25;4843322;29;20063;-78
2022/06/03 14:16:41;;;;;;;3.63;1.90;;;;;;;25.21;31.96;101144.72;4859769;29;20060;-78
2022/06/03 14:19:08;;;;;;;2.15;1.95;;;;;;;25.32;29.36;101135.81;4844741;29;20057;-77
2022/06/03 14:21:47;;;;;;;2.28;2.08;;;;;;;25.16;29.65;101142.34;4861498;29;20100;-76
2022/06/03 14:24:30;;;;;;;1.70;1.60;;;;;;;25.37;30.50;101136.31;4844647;29;20053;-76
2022/06/03 14:27:02;;;;;;;2.10;1.80;;;;;;;25.38;30.59;101138.03;4847294;29;20049;-79
2022/06/03 14:29:37;;;;;;;1.77;1.67;;;;;;;25.65;30.92;101138.69;4862692;29;20045;-78
2022/06/03 14:32:09;;;;;;;2.05;1.70;;;;;;;25.64;30.95;101141.47;4844721;29;20060;-78
2022/06/03 14:34:42;;;;;;;1.80;1.70;;;;;;;25.92;30.50;101129.47;4858983;29;20059;-78
2022/06/03 14:37:14;;;;;;;2.03;1.92;;;;;;;26.07;29.85;101128.28;4845825;29;20037;-78
2022/06/03 14:39:43;;;;;;;2.63;1.80;;;;;;;25.91;29.89;101128.59;4843805;29;20053;-78
2022/06/03 14:42:12;;;;;;;3.75;1.92;;;;;;;25.93;30.19;101126.63;4844949;29;20060;-78
2022/06/03 14:44:41;;;;;;;1.90;1.80;;;;;;;25.93;30.29;101125.75;4880753;29;20052;-77
2022/06/03 14:47:14;;;;;;;2.03;1.83;;;;;;;26.14;29.80;101113.25;4859785;29;20045;-77
2022/06/03 14:49:51;;;;;;;4.43;2.15;;;;;;;26.25;28.71;101118.69;4845966;29;20049;-77
2022/06/03 14:52:29;;;;;;;2.17;1.95;;;;;;;26.11;28.78;101116.19;4858752;29;20123;-78
2022/06/03 14:55:10;;;;;;;2.20;1.80;;;;;;;26.12;28.90;101120.63;4880001;29;20145;-78
2022/06/03 14:57:40;;;;;;;1.85;1.60;;;;;;;26.32;28.56;101114.53;4846886;29;20049;-77
2022/06/03 15:00:10;;;;;;;2.78;1.75;;;;;;;26.15;28.37;101105.97;4878744;29;20053;-78
2022/06/03 15:02:43;;;;;;;2.05;1.85;;;;;;;26.17;29.25;101107.59;4880802;29;20052;-78
2022/06/03 15:05:22;;;;;;;2.25;1.92;;;;;;;26.49;29.23;101115.91;4848800;29;20053;-78
2022/06/03 15:08:10;;;;;;;4.80;2.00;;;;;;;26.64;28.47;101102.97;4851609;29;20045;-79
2022/06/03 15:10:42;;;;;;;2.65;1.88;;;;;;;26.35;27.75;101099.88;4848595;29;20072;-78
2022/06/03 15:13:21;;;;;;;2.38;2.00;;;;;;;26.46;28.98;101094.47;4834351;29;20079;-77
2022/06/03 15:15:48;;;;;;;2.03;1.83;;;;;;;26.17;29.20;101096.78;4863932;29;20052;-77
2022/06/03 15:18:18;;;;;;;2.30;2.10;;;;;;;26.07;29.99;101098.47;4849735;29;20093;-78
2022/06/03 15:21:00;;;;;;;1.83;1.73;;;;;;;26.11;30.54;101083.69;4863614;29;20051;-77
2022/06/03 15:23:27;;;;;;;2.70;1.80;;;;;;;25.79;30.35;101087.06;4854074;29;20470;-77
2022/06/03 15:25:55;;;;;;;1.88;1.70;;;;;;;25.81;30.81;101082.44;4869562;29;20048;-79
2022/06/03 15:28:24;;;;;;;3.50;1.85;;;;;;;25.91;31.97;101082.56;4850587;29;20041;-78
2022/06/03 15:30:58;;;;;;;2.30;1.60;;;;;;;25.89;31.96;101084.50;4864572;29;20563;-78
2022/06/03 15:33:28;;;;;;;2.20;2.00;;;;;;;25.81;31.54;101086.94;4867758;29;20555;-77
2022/06/03 15:35:59;;;;;;;2.58;1.63;;;;;;;25.93;31.70;101082.44;4834529;29;20484;-78
2022/06/03 15:38:31;;;;;;;4.15;2.05;;;;;;;26.11;32.07;101072.88;4849471;29;20102;-77
2022/06/03 15:41:02;;;;;;;1.70;1.60;;;;;;;25.97;30.88;101082.06;4848850;29;20049;-77
2022/06/03 15:43:36;;;;;;;1.90;1.80;;;;;;;25.97;31.95;101070.38;4850075;29;20499;-78
2022/06/03 15:46:03;;;;;;;2.53;1.70;;;;;;;26.02;32.99;101076.31;4858391;29;20494;-78
2022/06/03 15:48:30;;;;;;;1.98;1.80;;;;;;;26.05;32.18;101076.06;4857627;29;20045;-77
2022/06/03 15:51:11;;;;;;;23.67;4.80;;;;;;;25.98;31.30;101066.69;4861069;29;20044;-77
2022/06/03 15:53:50;;;;;;;2.20;2.00;;;;;;;25.88;30.79;101069.25;4844970;29;20041;-78
2022/06/03 15:56:22;;;;;;;2.15;1.85;;;;;;;25.86;31.16;101063.09;4858325;29;20399;-78
2022/06/03 15:59:08;;;;;;;9.50;8.60;;;;;;;26.16;31.71;101062.56;4882247;29;20055;-77
2022/06/03 16:01:47;;;;;;;3.00;2.30;;;;;;;26.07;31.43;101066.84;4868177;29;20055;-79
2022/06/03 16:04:36;;;;;;;1.90;1.80;;;;;;;26.03;32.23;101069.91;4826868;29;20522;-77
2022/06/03 16:07:25;;;;;;;4.28;2.17;;;;;;;25.99;32.42;101071.16;4877787;29;20045;-77
2022/06/03 16:09:57;;;;;;;2.03;1.73;;;;;;;25.44;32.76;101072.66;4881328;29;20047;-79
2022/06/03 16:13:05;;;;;;;3.10;2.83;;;;;;;25.47;32.58;101083.25;4841638;29;20045;-78
2022/06/03 16:15:48;;;;;;;3.05;2.10;;;;;;;25.52;32.05;101076.50;4847044;29;20127;-77
2022/06/03 16:18:42;;;;;;;2.47;1.90;;;;;;;25.60;31.92;101072.34;4864997;29;20033;-77
2022/06/03 16:21:37;;;;;;;2.10;1.60;;;;;;;25.65;32.63;101076.44;4851299;29;20055;-79
2022/06/03 16:24:26;;;;;;;1.98;1.88;;;;;;;25.51;32.05;101069.38;4836844;29;20048;-77
2022/06/03 16:27:17;;;;;;;2.20;2.00;;;;;;;25.33;32.54;101073.50;4850663;29;20483;-76
2022/06/03 16:29:55;;;;;;;2.00;1.80;;;;;;;25.43;33.37;101074.50;4872412;29;20056;-77
2022/06/03 16:32:45;;;;;;;2.47;2.22;;;;;;;25.45;32.92;101077.09;4851801;29;20048;-78
2022/06/03 16:35:28;;;;;;;1.70;1.60;;;;;;;25.24;32.34;101077.75;4860888;29;20037;-78
2022/06/03 16:38:04;;;;;;;2.28;1.80;;;;;;;25.20;33.02;101075.38;4848965;29;20056;-77
2022/06/03 16:40:41;;;;;;;2.00;1.80;;;;;;;24.97;32.89;101072.53;4889260;29;20781;-77
2022/06/03 16:43:23;;;;;;;3.17;1.60;;;;;;;24.82;34.26;101068.25;4864065;29;20041;-78
2022/06/03 16:46:05;;;;;;;3.25;2.10;;;;;;;24.66;34.78;101063.13;4845734;29;20051;-76
2022/06/03 16:48:38;;;;;;;1.80;1.70;;;;;;;24.33;34.64;101062.84;4864305;29;20072;-78
2022/06/03 16:51:20;;;;;;;2.40;2.20;;;;;;;24.39;34.82;101067.81;4863331;29;20072;-78
2022/06/03 16:53:52;;;;;;;2.20;2.00;;;;;;;24.23;35.61;101059.91;4851454;29;20095;-78
2022/06/03 16:56:31;;;;;;;2.30;2.10;;;;;;;24.21;35.44;101059.13;4881884;29;20044;-77
2022/06/03 16:59:01;;;;;;;2.65;2.03;;;;;;;24.26;35.18;101057.00;4856255;29;20036;-78
2022/06/03 17:01:35;;;;;;;1.85;1.75;;;;;;;24.21;35.89;101055.59;4865259;29;20041;-78
2022/06/03 17:04:02;;;;;;;2.92;1.85;;;;;;;24.05;35.80;101056.69;4849270;29;20055;-79
2022/06/03 17:06:29;;;;;;;2.55;2.10;;;;;;;23.96;35.40;101057.31;4851811;29;20648;-78
2022/06/03 17:09:00;;;;;;;2.13;1.70;;;;;;;23.82;36.13;101052.91;4848503;29;20432;-79
2022/06/03 17:11:31;;;;;;;2.10;1.90;;;;;;;23.68;37.17;101050.28;4851594;29;20037;-82
2022/06/03 17:14:02;;;;;;;2.22;2.03;;;;;;;23.53;38.74;101046.78;4852152;29;20045;-79
2022/06/03 17:16:44;;;;;;;2.65;1.98;;;;;;;23.35;40.63;101048.03;4840137;29;20495;-77
2022/06/03 17:19:12;;;;;;;2.67;1.85;;;;;;;23.22;37.57;101053.41;4841869;29;20049;-77
2022/06/03 17:22:03;;;;;;;2.38;2.17;;;;;;;23.09;38.61;101049.78;4852719;29;20534;-78
2022/06/03 17:24:34;;;;;;;2.35;1.70;;;;;;;22.75;38.88;101043.88;4849481;29;20049;-78
2022/06/03 17:27:24;;;;;;;2.95;1.98;;;;;;;22.84;40.04;101053.19;4843039;29;20067;-77
2022/06/03 17:30:04;;;;;;;2.15;1.90;;;;;;;22.76;38.95;101045.59;4847712;29;20045;-79
2022/06/03 17:32:57;;;;;;;2.00;1.90;;;;;;;22.75;39.74;101043.88;4840306;29;20049;-81
2022/06/03 17:35:37;;;;;;;2.65;2.10;;;;;;;22.68;42.07;101047.06;4849020;29;20100;-79
2022/06/03 17:38:30;;;;;;;1.73;1.63;;;;;;;22.54;40.55;101057.88;4833208;29;20061;-77
2022/06/03 17:41:16;;;;;;;2.28;1.73;;;;;;;22.46;40.99;101061.06;4877391;29;20048;-79
2022/06/03 17:44:21;;;;;;;2.50;2.10;;;;;;;22.41;39.87;101053.28;4840142;29;20072;-80
2022/06/03 17:47:01;;;;;;;3.00;2.80;;;;;;;22.36;39.62;101067.97;4879193;29;20056;-79
2022/06/03 17:49:34;;;;;;;16.77;15.15;;;;;;;22.28;40.07;101060.41;4850876;29;20060;-79
2022/06/03 17:55:23;;;;;;;2.22;2.03;;;;;;;22.08;39.97;101063.47;4872358;29;20041;-79
2022/06/03 17:58:13;;;;;;;2.50;2.30;;;;;;;21.81;40.95;101066.84;4858663;29;20051;-78
2022/06/03 18:01:04;;;;;;;2.08;1.88;;;;;;;21.84;40.96;101061.28;4874623;29;20092;-79
2022/06/03 18:03:53;;;;;;;2.42;2.05;;;;;;;21.73;43.21;101069.16;4874639;29;20502;-79
2022/06/03 18:06:40;;;;;;;2.10;1.90;;;;;;;21.72;42.92;101070.09;4875288;29;20033;-79
2022/06/03 18:09:15;;;;;;;2.25;1.92;;;;;;;21.55;41.60;101065.75;4858349;29;20037;-78
2022/06/03 18:11:44;;;;;;;2.63;1.95;;;;;;;21.51;44.26;101077.63;4859031;29;20063;-79
2022/06/03 18:14:19;;;;;;;2.40;1.85;;;;;;;21.37;44.54;101071.34;4852617;29;20041;-79
2022/06/03 18:17:07;;;;;;;1.90;1.70;;;;;;;21.28;44.71;101070.06;4846747;29;20064;-79
2022/06/03 18:19:37;;;;;;;1.90;1.70;;;;;;;21.07;45.53;101061.38;4857285;29;20036;-78
2022/06/03 18:22:27;;;;;;;1.77;1.67;;;;;;;20.88;46.53;101058.03;4854824;29;20511;-78
2022/06/03 18:25:07;;;;;;;2.22;1.95;;;;;;;20.82;47.55;101058.38;4857265;29;21036;-78
2022/06/03 18:27:58;;;;;;;1.95;1.77;;;;;;;20.52;48.95;101062.72;4854328;29;20037;-78
2022/06/03 18:30:37;;;;;;;2.13;1.77;;;;;;;20.40;49.98;101073.22;4856349;29;20071;-77
2022/06/03 18:33:33;;;;;;;2.15;1.95;;;;;;;20.16;50.95;101067.34;4826973;29;20418;-78
2022/06/03 18:36:22;;;;;;;2.22;2.03;;;;;;;20.01;50.07;101071.75;4860290;29;20056;-78
2022/06/03 18:39:25;;;;;;;1.80;1.70;;;;;;;19.78;51.13;101069.41;4858113;29;20049;-78
2022/06/03 18:42:11;;;;;;;3.30;2.10;;;;;;;19.63;52.51;101066.56;4874389;29;20044;-78
2022/06/03 18:44:41;;;;;;;2.10;1.90;;;;;;;19.43;52.19;101068.50;4863232;29;20539;-78
2022/06/03 18:47:30;;;;;;;1.70;1.60;;;;;;;19.34;52.66;101068.03;4847021;29;20408;-78
2022/06/03 18:50:28;;;;;;;2.30;2.10;;;;;;;19.13;53.88;101061.91;4831088;29;20060;-78
2022/06/03 18:53:08;;;;;;;2.17;1.98;;;;;;;19.11;52.92;101061.13;4864451;29;20509;-77
2022/06/03 18:56:00;;;;;;;1.83;1.65;;;;;;;18.97;55.00;101070.78;4844039;29;20499;-78
2022/06/03 18:58:27;;;;;;;2.08;1.90;;;;;;;18.89;55.96;101073.81;4866414;29;20053;-78
2022/06/03 19:01:06;;;;;;;2.10;1.90;;;;;;;18.75;56.05;101071.84;4858478;29;20520;-78